createdAt,value
2018-03-01T00:00:36.094Z,-8.40
2018-03-01T00:01:36.231Z,-8.32
2018-03-01T00:02:36.369Z,-8.37
2018-03-01T00:03:36.510Z,-8.40
2018-03-01T00:04:36.656Z,-8.42
2018-03-01T00:05:36.796Z,-8.42
2018-03-01T00:06:36.944Z,-8.29
2018-03-01T00:07:37.082Z,-8.32
2018-03-01T00:08:37.224Z,-8.34
2018-03-01T00:09:37.372Z,-8.34
2018-03-01T00:10:37.518Z,-8.34
2018-03-01T00:11:37.649Z,-8.26
2018-03-01T00:12:37.792Z,-8.26
2018-03-01T00:13:37.931Z,-8.28
2018-03-01T00:14:38.074Z,-8.25
2018-03-01T00:15:38.216Z,-8.22
2018-03-01T00:16:38.360Z,-8.25
2018-03-01T00:17:38.497Z,-8.29
2018-03-01T00:18:38.642Z,-8.34
2018-03-01T00:19:38.778Z,-8.36
2018-03-01T00:20:38.926Z,-8.28
2018-03-01T00:21:39.070Z,-8.22
2018-03-01T00:22:39.216Z,-8.31
2018-03-01T00:23:39.352Z,-8.28
2018-03-01T00:24:39.497Z,-8.32
2018-03-01T00:25:39.651Z,-8.32
2018-03-01T00:26:39.782Z,-8.34
2018-03-01T00:27:39.930Z,-8.23
2018-03-01T00:28:40.068Z,-8.34
2018-03-01T00:29:40.209Z,-8.32
2018-03-01T00:30:40.351Z,-8.32
2018-03-01T00:31:40.493Z,-8.39
2018-03-01T00:32:40.632Z,-8.39
2018-03-01T00:33:40.775Z,-8.40
2018-03-01T00:34:40.930Z,-8.39
2018-03-01T00:35:41.062Z,-8.29
2018-03-01T00:36:41.201Z,-8.31
2018-03-01T00:37:41.347Z,-8.46
2018-03-01T00:38:41.485Z,-8.40
2018-03-01T00:39:41.620Z,-8.44
2018-03-01T00:40:41.771Z,-8.43
2018-03-01T00:41:41.951Z,-8.46
2018-03-01T00:42:42.051Z,-8.46
2018-03-01T00:43:42.191Z,-8.42
2018-03-01T00:44:42.334Z,-8.31
2018-03-01T00:45:42.476Z,-8.43
2018-03-01T00:46:42.616Z,-8.37
2018-03-01T00:47:42.754Z,-8.52
2018-03-01T00:48:42.900Z,-8.52
2018-03-01T00:49:43.040Z,-8.52
2018-03-01T00:50:43.183Z,-8.46
2018-03-01T00:51:43.322Z,-8.47
2018-03-01T00:52:43.464Z,-8.44
2018-03-01T00:53:43.608Z,-8.46
2018-03-01T00:54:43.748Z,-8.52
2018-03-01T00:55:43.897Z,-8.43
2018-03-01T00:56:44.033Z,-8.44
2018-03-01T00:57:44.180Z,-8.47
2018-03-01T00:58:44.318Z,-8.43
2018-03-01T00:59:44.451Z,-8.44
2018-03-01T01:00:44.593Z,-8.50
2018-03-01T01:01:44.733Z,-8.44
2018-03-01T01:02:44.876Z,-8.43
2018-03-01T01:03:45.039Z,-8.54
2018-03-01T01:04:45.157Z,-8.55
2018-03-01T01:05:45.295Z,-8.52
2018-03-01T01:06:45.436Z,-8.58
2018-03-01T01:07:45.580Z,-8.47
2018-03-01T01:08:45.722Z,-8.49
2018-03-01T01:09:45.870Z,-8.57
2018-03-01T01:10:46.001Z,-8.58
2018-03-01T01:11:46.140Z,-8.54
2018-03-01T01:12:46.288Z,-8.52
2018-03-01T01:13:46.425Z,-8.55
2018-03-01T01:14:46.573Z,-8.54
2018-03-01T01:15:46.710Z,-8.58
2018-03-01T01:16:46.851Z,-8.57
2018-03-01T01:17:46.992Z,-8.50
2018-03-01T01:18:47.137Z,-8.52
2018-03-01T01:19:47.278Z,-8.54
2018-03-01T01:20:47.419Z,-8.54
2018-03-01T01:21:47.567Z,-8.52
2018-03-01T01:22:47.720Z,-8.57
2018-03-01T01:23:47.836Z,-8.64
2018-03-01T01:24:47.976Z,-8.57
2018-03-01T01:25:48.119Z,-8.70
2018-03-01T01:26:48.262Z,-8.65
2018-03-01T01:27:48.406Z,-8.58
2018-03-01T01:28:48.545Z,-8.60
2018-03-01T01:29:48.694Z,-8.61
2018-03-01T01:30:48.830Z,-8.73
2018-03-01T01:31:48.972Z,-8.64
2018-03-01T01:32:49.114Z,-8.62
2018-03-01T01:33:49.254Z,-8.76
2018-03-01T01:34:49.392Z,-8.78
2018-03-01T01:35:49.532Z,-8.78
2018-03-01T01:36:49.675Z,-8.75
2018-03-01T01:37:49.815Z,-8.72
2018-03-01T01:38:49.963Z,-8.70
2018-03-01T01:39:50.102Z,-8.79
2018-03-01T01:40:50.243Z,-8.68
2018-03-01T01:41:50.395Z,-8.78
2018-03-01T01:42:50.518Z,-8.73
2018-03-01T01:43:50.661Z,-8.73
2018-03-01T01:44:50.801Z,-8.72
2018-03-01T01:45:50.943Z,-8.73
2018-03-01T01:46:51.086Z,-8.67
2018-03-01T01:47:51.225Z,-8.73
2018-03-01T01:48:51.369Z,-8.78
2018-03-01T01:49:51.511Z,-8.79
2018-03-01T01:50:51.648Z,-8.81
2018-03-01T01:51:51.792Z,-8.78
2018-03-01T01:52:51.937Z,-8.81
2018-03-01T01:53:52.076Z,-8.79
2018-03-01T01:54:52.218Z,-8.78
2018-03-01T01:55:52.365Z,-8.72
2018-03-01T01:56:52.502Z,-8.70
2018-03-01T01:57:52.638Z,-8.72
2018-03-01T01:58:52.782Z,-8.76
2018-03-01T01:59:52.923Z,-8.61
2018-03-01T02:00:53.066Z,-8.65
2018-03-01T02:01:53.205Z,-8.67
2018-03-01T02:02:53.352Z,-8.81
2018-03-01T02:03:53.489Z,-8.85
2018-03-01T02:04:53.654Z,-8.79
2018-03-01T02:05:53.765Z,-8.76
2018-03-01T02:06:53.908Z,-8.75
2018-03-01T02:07:54.048Z,-8.82
2018-03-01T02:08:54.189Z,-8.75
2018-03-01T02:09:54.331Z,-8.79
2018-03-01T02:10:54.472Z,-8.81
2018-03-01T02:11:54.612Z,-8.68
2018-03-01T02:12:54.754Z,-8.75
2018-03-01T02:13:54.893Z,-8.70
2018-03-01T02:14:55.036Z,-8.73
2018-03-01T02:15:55.179Z,-8.68
2018-03-01T02:16:55.321Z,-8.78
2018-03-01T02:17:55.462Z,-8.72
2018-03-01T02:18:55.598Z,-8.78
2018-03-01T02:19:55.989Z,-8.86
2018-03-01T02:20:55.882Z,-8.86
2018-03-01T02:21:56.023Z,-8.73
2018-03-01T02:22:56.164Z,-8.78
2018-03-01T02:23:56.304Z,-8.76
2018-03-01T02:24:56.450Z,-8.82
2018-03-01T02:25:56.590Z,-8.81
2018-03-01T02:26:56.725Z,-8.78
2018-03-01T02:27:56.869Z,-8.78
2018-03-01T02:28:57.009Z,-8.78
2018-03-01T02:29:57.154Z,-8.73
2018-03-01T02:30:57.293Z,-8.79
2018-03-01T02:31:57.433Z,-8.79
2018-03-01T02:32:57.574Z,-8.79
2018-03-01T02:33:57.718Z,-8.68
2018-03-01T02:34:57.857Z,-8.72
2018-03-01T02:35:57.995Z,-8.75
2018-03-01T02:36:58.136Z,-8.72
2018-03-01T02:37:58.276Z,-8.81
2018-03-01T02:38:58.422Z,-8.68
2018-03-01T02:39:58.558Z,-8.70
2018-03-01T02:40:58.701Z,-8.64
2018-03-01T02:41:58.841Z,-8.73
2018-03-01T02:42:58.983Z,-8.65
2018-03-01T02:43:59.132Z,-8.67
2018-03-01T02:44:59.267Z,-8.73
2018-03-01T02:45:59.410Z,-8.81
2018-03-01T02:47:59.681Z,-8.60
2018-03-01T02:48:59.824Z,-8.58
2018-03-01T02:49:59.971Z,-8.60
2018-03-01T02:51:00.104Z,-8.64
2018-03-01T02:52:00.249Z,-8.62
2018-03-01T02:53:00.388Z,-8.57
2018-03-01T02:54:00.535Z,-8.61
2018-03-01T02:55:00.713Z,-8.55
2018-03-01T02:56:00.819Z,-8.62
2018-03-01T02:57:00.957Z,-8.64
2018-03-01T02:58:01.098Z,-8.67
2018-03-01T02:59:01.735Z,-8.78
2018-03-01T03:00:01.380Z,-8.68
2018-03-01T03:01:01.524Z,-8.64
2018-03-01T03:02:02.144Z,-8.62
2018-03-01T03:03:01.804Z,-8.67
2018-03-01T03:04:01.963Z,-8.68
2018-03-01T03:05:02.091Z,-8.64
2018-03-01T03:06:02.228Z,-8.60
2018-03-01T03:07:02.372Z,-8.55
2018-03-01T03:08:02.514Z,-8.54
2018-03-01T03:09:02.656Z,-8.60
2018-03-01T03:10:02.796Z,-8.68
2018-03-01T03:11:03.304Z,-8.67
2018-03-01T03:12:03.080Z,-8.78
2018-03-01T03:13:03.220Z,-8.81
2018-03-01T03:14:03.698Z,-8.64
2018-03-01T03:15:03.504Z,-8.70
2018-03-01T03:16:03.651Z,-8.58
2018-03-01T03:17:03.796Z,-8.75
2018-03-01T03:18:03.931Z,-8.60
2018-03-01T03:19:04.071Z,-8.68
2018-03-01T03:20:04.494Z,-8.61
2018-03-01T03:21:04.359Z,-8.57
2018-03-01T03:22:04.498Z,-8.65
2018-03-01T03:23:04.641Z,-8.65
2018-03-01T03:24:04.780Z,-8.61
2018-03-01T03:25:04.927Z,-8.70
2018-03-01T03:26:05.318Z,-8.78
2018-03-01T03:27:05.205Z,-8.78
2018-03-01T03:28:05.342Z,-8.73
2018-03-01T03:29:05.486Z,-8.72
2018-03-01T03:30:05.626Z,-8.78
2018-03-01T03:31:05.773Z,-8.72
2018-03-01T03:32:05.914Z,-8.79
2018-03-01T03:33:06.048Z,-8.79
2018-03-01T03:34:06.189Z,-8.76
2018-03-01T03:35:06.332Z,-8.82
2018-03-01T03:36:06.471Z,-8.75
2018-03-01T03:37:06.612Z,-8.90
2018-03-01T03:38:06.759Z,-8.92
2018-03-01T03:39:06.898Z,-8.83
2018-03-01T03:40:07.037Z,-8.79
2018-03-01T03:41:07.175Z,-8.82
2018-03-01T03:42:07.318Z,-8.78
2018-03-01T03:43:07.459Z,-8.75
2018-03-01T03:44:07.602Z,-8.70
2018-03-01T03:45:07.743Z,-8.78
2018-03-01T03:46:07.891Z,-8.65
2018-03-01T03:47:08.028Z,-8.76
2018-03-01T03:48:08.169Z,-8.58
2018-03-01T03:49:08.310Z,-8.65
2018-03-01T03:50:08.448Z,-8.67
2018-03-01T03:51:08.595Z,-8.76
2018-03-01T03:52:08.735Z,-8.68
2018-03-01T03:53:08.877Z,-8.60
2018-03-01T03:54:09.014Z,-8.68
2018-03-01T03:55:09.157Z,-8.75
2018-03-01T03:56:09.298Z,-8.73
2018-03-01T03:57:09.441Z,-8.78
2018-03-01T03:58:09.581Z,-8.76
2018-03-01T03:59:09.724Z,-8.79
2018-03-01T04:00:09.865Z,-8.72
2018-03-01T04:01:10.007Z,-8.82
2018-03-01T04:02:10.149Z,-8.83
2018-03-01T04:03:10.291Z,-8.78
2018-03-01T04:04:10.433Z,-8.72
2018-03-01T04:05:10.568Z,-8.81
2018-03-01T04:06:10.713Z,-8.70
2018-03-01T04:07:10.855Z,-8.78
2018-03-01T04:08:10.997Z,-8.62
2018-03-01T04:09:11.135Z,-8.68
2018-03-01T04:10:11.281Z,-8.81
2018-03-01T04:11:11.420Z,-8.75
2018-03-01T04:12:11.568Z,-8.75
2018-03-01T04:13:11.700Z,-8.67
2018-03-01T04:14:11.840Z,-8.73
2018-03-01T04:15:11.985Z,-8.75
2018-03-01T04:16:12.128Z,-8.76
2018-03-01T04:17:12.273Z,-8.83
2018-03-01T04:18:12.410Z,-8.82
2018-03-01T04:19:12.550Z,-8.86
2018-03-01T04:20:12.696Z,-8.76
2018-03-01T04:21:12.837Z,-8.83
2018-03-01T04:22:12.976Z,-8.86
2018-03-01T04:23:13.119Z,-8.92
2018-03-01T04:24:13.263Z,-8.96
2018-03-01T04:25:13.413Z,-8.94
2018-03-01T04:26:13.542Z,-9.00
2018-03-01T04:27:13.684Z,-8.96
2018-03-01T04:28:13.830Z,-9.04
2018-03-01T04:29:13.964Z,-9.03
2018-03-01T04:30:14.106Z,-9.07
2018-03-01T04:31:14.250Z,-9.04
2018-03-01T04:32:14.395Z,-9.07
2018-03-01T04:33:14.533Z,-9.06
2018-03-01T04:34:14.673Z,-9.03
2018-03-01T04:35:14.816Z,-9.12
2018-03-01T04:36:14.953Z,-9.12
2018-03-01T04:37:15.097Z,-9.07
2018-03-01T04:38:15.235Z,-9.02
2018-03-01T04:39:15.374Z,-8.97
2018-03-01T04:40:15.514Z,-8.94
2018-03-01T04:41:15.656Z,-8.99
2018-03-01T04:42:15.796Z,-9.02
2018-03-01T04:43:15.940Z,-8.96
2018-03-01T04:44:16.079Z,-9.07
2018-03-01T04:45:16.228Z,-9.06
2018-03-01T04:46:16.366Z,-8.97
2018-03-01T04:47:16.509Z,-9.04
2018-03-01T04:48:16.654Z,-9.07
2018-03-01T04:49:16.798Z,-9.03
2018-03-01T04:50:16.933Z,-9.04
2018-03-01T04:51:17.074Z,-9.02
2018-03-01T04:52:17.213Z,-8.94
2018-03-01T04:53:17.359Z,-8.96
2018-03-01T04:54:17.497Z,-9.04
2018-03-01T04:55:17.646Z,-9.04
2018-03-01T04:56:17.779Z,-8.96
2018-03-01T04:57:17.923Z,-9.07
2018-03-01T04:58:18.062Z,-9.03
2018-03-01T04:59:18.207Z,-9.07
2018-03-01T05:00:18.343Z,-9.02
2018-03-01T05:01:18.487Z,-9.15
2018-03-01T05:02:18.627Z,-9.03
2018-03-01T05:03:18.767Z,-8.97
2018-03-01T05:04:18.907Z,-9.04
2018-03-01T05:05:19.051Z,-9.06
2018-03-01T05:06:19.196Z,-9.04
2018-03-01T05:07:19.332Z,-9.10
2018-03-01T05:08:19.473Z,-9.11
2018-03-01T05:09:19.612Z,-9.11
2018-03-01T05:10:19.756Z,-9.14
2018-03-01T05:11:19.896Z,-9.11
2018-03-01T05:12:20.034Z,-9.10
2018-03-01T05:13:20.174Z,-9.07
2018-03-01T05:14:20.314Z,-9.12
2018-03-01T05:15:20.456Z,-9.11
2018-03-01T05:16:20.610Z,-9.04
2018-03-01T05:17:20.740Z,-9.10
2018-03-01T05:18:20.882Z,-9.04
2018-03-01T05:19:21.027Z,-9.07
2018-03-01T05:20:21.164Z,-9.10
2018-03-01T05:21:21.308Z,-9.17
2018-03-01T05:22:21.456Z,-9.07
2018-03-01T05:23:21.585Z,-9.18
2018-03-01T05:24:21.724Z,-9.21
2018-03-01T05:26:22.001Z,-9.07
2018-03-01T05:27:22.142Z,-9.15
2018-03-01T05:28:22.283Z,-9.24
2018-03-01T05:29:22.424Z,-9.20
2018-03-01T05:30:22.563Z,-9.28
2018-03-01T05:31:22.708Z,-9.46
2018-03-01T05:32:22.850Z,-9.46
2018-03-01T05:33:22.991Z,-9.29
2018-03-01T05:34:23.130Z,-9.28
2018-03-01T05:35:23.267Z,-9.41
2018-03-01T05:36:23.409Z,-9.44
2018-03-01T05:37:23.560Z,-9.35
2018-03-01T05:38:23.694Z,-9.32
2018-03-01T05:39:23.838Z,-9.33
2018-03-01T05:40:23.975Z,-9.36
2018-03-01T05:41:24.117Z,-9.31
2018-03-01T05:42:24.263Z,-9.33
2018-03-01T05:43:24.398Z,-9.41
2018-03-01T05:44:24.538Z,-9.38
2018-03-01T05:45:24.682Z,-9.41
2018-03-01T05:46:24.824Z,-9.39
2018-03-01T05:47:24.963Z,-9.35
2018-03-01T05:48:25.104Z,-9.33
2018-03-01T05:49:25.244Z,-9.28
2018-03-01T05:50:25.397Z,-9.39
2018-03-01T05:51:25.527Z,-9.33
2018-03-01T05:52:25.916Z,-9.39
2018-03-01T05:53:25.805Z,-9.38
2018-03-01T05:54:25.960Z,-9.31
2018-03-01T05:55:26.084Z,-9.33
2018-03-01T05:56:26.221Z,-9.35
2018-03-01T05:57:26.364Z,-9.38
2018-03-01T05:58:26.502Z,-9.38
2018-03-01T05:59:26.650Z,-9.32
2018-03-01T06:00:26.788Z,-9.39
2018-03-01T06:01:26.925Z,-9.41
2018-03-01T06:02:27.070Z,-9.36
2018-03-01T06:03:27.203Z,-9.36
2018-03-01T06:04:27.346Z,-9.41
2018-03-01T06:05:27.487Z,-9.43
2018-03-01T06:06:27.628Z,-9.51
2018-03-01T06:07:27.775Z,-9.48
2018-03-01T06:08:27.908Z,-9.55
2018-03-01T06:09:28.070Z,-9.46
2018-03-01T06:10:28.433Z,-9.43
2018-03-01T06:11:28.333Z,-9.41
2018-03-01T06:12:28.475Z,-9.39
2018-03-01T06:13:28.625Z,-9.38
2018-03-01T06:14:28.760Z,-9.41
2018-03-01T06:15:28.920Z,-9.33
2018-03-01T06:16:29.039Z,-9.33
2018-03-01T06:17:29.179Z,-9.46
2018-03-01T06:18:29.320Z,-9.35
2018-03-01T06:19:29.464Z,-9.43
2018-03-01T06:20:29.602Z,-9.32
2018-03-01T06:21:29.727Z,-9.39
2018-03-01T06:22:29.937Z,-9.36
2018-03-01T06:23:30.013Z,-9.43
2018-03-01T06:24:30.149Z,-9.39
2018-03-01T06:25:30.291Z,-9.38
2018-03-01T06:26:30.428Z,-9.35
2018-03-01T06:27:30.570Z,-9.35
2018-03-01T06:28:30.715Z,-9.22
2018-03-01T06:29:30.852Z,-9.36
2018-03-01T06:30:30.993Z,-9.31
2018-03-01T06:31:31.134Z,-9.21
2018-03-01T06:32:31.270Z,-9.14
2018-03-01T06:33:31.408Z,-9.07
2018-03-01T06:34:31.546Z,-9.10
2018-03-01T06:35:31.696Z,-9.03
2018-03-01T06:36:31.827Z,-9.14
2018-03-01T06:37:31.975Z,-9.14
2018-03-01T06:38:32.112Z,-9.11
2018-03-01T06:39:32.253Z,-9.12
2018-03-01T06:40:32.396Z,-9.14
2018-03-01T06:41:32.539Z,-9.14
2018-03-01T06:42:32.685Z,-9.12
2018-03-01T06:43:32.815Z,-9.07
2018-03-01T06:44:32.960Z,-9.03
2018-03-01T06:45:33.103Z,-9.14
2018-03-01T06:46:33.235Z,-9.10
2018-03-01T06:47:33.376Z,-9.10
2018-03-01T06:48:33.512Z,-9.10
2018-03-01T06:49:33.658Z,-9.04
2018-03-01T06:50:33.798Z,-8.97
2018-03-01T06:51:33.940Z,-8.99
2018-03-01T06:52:34.078Z,-8.99
2018-03-01T06:53:34.223Z,-8.94
2018-03-01T06:54:34.367Z,-8.93
2018-03-01T06:55:34.514Z,-8.86
2018-03-01T06:56:34.649Z,-8.93
2018-03-01T06:57:34.795Z,-8.79
2018-03-01T06:58:34.929Z,-8.82
2018-03-01T06:59:35.073Z,-8.73
2018-03-01T07:00:35.231Z,-8.72
2018-03-01T07:01:35.356Z,-8.83
2018-03-01T07:02:35.498Z,-8.81
2018-03-01T07:03:35.642Z,-8.81
2018-03-01T07:04:35.792Z,-8.75
2018-03-01T07:05:35.920Z,-8.72
2018-03-01T07:06:36.070Z,-8.76
2018-03-01T07:07:36.205Z,-8.90
2018-03-01T07:08:36.344Z,-8.75
2018-03-01T07:09:36.496Z,-8.83
2018-03-01T07:10:36.630Z,-8.73
2018-03-01T07:11:36.843Z,-8.72
2018-03-01T07:12:36.926Z,-8.76
2018-03-01T07:13:37.059Z,-8.75
2018-03-01T07:14:37.198Z,-8.73
2018-03-01T07:16:37.476Z,-8.70
2018-03-01T07:17:37.617Z,-8.73
2018-03-01T07:18:37.755Z,-8.75
2018-03-01T07:19:37.896Z,-8.72
2018-03-01T07:20:38.047Z,-8.68
2018-03-01T07:21:38.175Z,-8.61
2018-03-01T07:22:38.313Z,-8.61
2018-03-01T07:23:38.463Z,-8.61
2018-03-01T07:24:38.599Z,-8.70
2018-03-01T07:25:38.739Z,-8.62
2018-03-01T07:26:38.883Z,-8.64
2018-03-01T07:27:39.022Z,-8.60
2018-03-01T07:28:39.160Z,-8.60
2018-03-01T07:29:39.302Z,-8.67
2018-03-01T07:30:39.444Z,-8.47
2018-03-01T07:31:39.588Z,-8.57
2018-03-01T07:32:39.735Z,-8.43
2018-03-01T07:33:39.873Z,-8.32
2018-03-01T07:34:40.020Z,-8.22
2018-03-01T07:35:40.163Z,-8.03
2018-03-01T07:36:40.301Z,-8.22
2018-03-01T07:37:40.514Z,-8.03
2018-03-01T07:38:40.589Z,-7.96
2018-03-01T07:39:40.716Z,-7.99
2018-03-01T07:40:40.867Z,-7.83
2018-03-01T07:41:41.008Z,-7.72
2018-03-01T07:42:41.150Z,-7.60
2018-03-01T07:43:41.291Z,-7.52
2018-03-01T07:44:41.434Z,-7.22
2018-03-01T07:46:41.712Z,-7.35
2018-03-01T07:47:41.861Z,-7.08
2018-03-01T07:48:42.000Z,-6.87
2018-03-01T07:49:42.161Z,-6.50
2018-03-01T07:50:42.285Z,-6.38
2018-03-01T07:51:42.427Z,-6.23
2018-03-01T07:52:42.571Z,-5.96
2018-03-01T07:53:42.715Z,-5.82
2018-03-01T07:54:42.860Z,-5.71
2018-03-01T07:55:42.994Z,-5.74
2018-03-01T07:56:43.127Z,-5.35
2018-03-01T07:57:43.271Z,-5.42
2018-03-01T07:58:43.417Z,-5.46
2018-03-01T07:59:43.557Z,-5.57
2018-03-01T08:00:43.711Z,-5.67
2018-03-01T08:01:43.839Z,-5.42
2018-03-01T08:02:43.985Z,-5.18
2018-03-01T08:03:44.129Z,-5.31
2018-03-01T08:04:44.272Z,-5.31
2018-03-01T08:05:44.416Z,-5.19
2018-03-01T08:06:44.561Z,-5.14
2018-03-01T08:07:44.708Z,-4.91
2018-03-01T08:08:44.854Z,-4.77
2018-03-01T08:09:44.996Z,-4.69
2018-03-01T08:10:45.143Z,-4.95
2018-03-01T08:11:45.292Z,-4.77
2018-03-01T08:12:45.441Z,-4.95
2018-03-01T08:13:45.596Z,-4.75
2018-03-01T08:14:45.730Z,-4.84
2018-03-01T08:15:45.888Z,-4.81
2018-03-01T08:16:46.097Z,-4.71
2018-03-01T08:17:46.172Z,-5.13
2018-03-01T08:18:46.320Z,-5.22
2018-03-01T08:19:46.459Z,-5.13
2018-03-01T08:20:46.603Z,-5.38
2018-03-01T08:21:46.753Z,-5.10
2018-03-01T08:22:46.906Z,-4.82
2018-03-01T08:23:47.048Z,-4.88
2018-03-01T08:24:47.196Z,-4.75
2018-03-01T08:25:47.342Z,-4.24
2018-03-01T08:26:47.486Z,-4.02
2018-03-01T08:27:47.637Z,-4.20
2018-03-01T08:28:47.773Z,-4.28
2018-03-01T08:29:47.920Z,-4.22
2018-03-01T08:30:48.074Z,-4.27
2018-03-01T08:31:48.218Z,-4.50
2018-03-01T08:32:48.363Z,-4.48
2018-03-01T08:33:48.505Z,-4.34
2018-03-01T08:34:48.651Z,-4.21
2018-03-01T08:35:48.800Z,-4.31
2018-03-01T08:36:48.944Z,-4.52
2018-03-01T08:37:49.087Z,-4.32
2018-03-01T08:38:49.252Z,-4.50
2018-03-01T08:39:49.405Z,-4.35
2018-03-01T08:40:49.549Z,-4.10
2018-03-01T08:41:49.698Z,-4.27
2018-03-01T08:42:49.874Z,-4.43
2018-03-01T08:43:49.989Z,-4.25
2018-03-01T08:44:50.141Z,-3.77
2018-03-01T08:45:50.282Z,-3.22
2018-03-01T08:46:50.433Z,-3.54
2018-03-01T08:47:50.575Z,-3.99
2018-03-01T08:48:50.735Z,-4.32
2018-03-01T08:49:50.883Z,-4.20
2018-03-01T08:50:51.032Z,-4.25
2018-03-01T08:51:51.172Z,-4.48
2018-03-01T08:52:51.324Z,-4.81
2018-03-01T08:53:51.729Z,-4.91
2018-03-01T08:54:51.624Z,-4.73
2018-03-01T08:55:51.783Z,-4.81
2018-03-01T08:56:51.921Z,-4.70
2018-03-01T08:57:52.067Z,-4.79
2018-03-01T08:58:52.451Z,-4.75
2018-03-01T08:59:52.357Z,-4.42
2018-03-01T09:00:52.501Z,-4.45
2018-03-01T09:01:52.647Z,-4.59
2018-03-01T09:02:52.797Z,-4.91
2018-03-01T09:03:52.942Z,-5.02
2018-03-01T09:04:53.104Z,-5.08
2018-03-01T09:05:53.249Z,-5.22
2018-03-01T09:06:53.384Z,-4.96
2018-03-01T09:07:53.537Z,-5.10
2018-03-01T09:08:53.676Z,-5.13
2018-03-01T09:09:53.821Z,-5.10
2018-03-01T09:10:53.980Z,-5.24
2018-03-01T09:11:54.128Z,-5.09
2018-03-01T09:12:54.274Z,-5.06
2018-03-01T09:13:54.481Z,-5.08
2018-03-01T09:14:54.555Z,-5.10
2018-03-01T09:15:54.701Z,-5.13
2018-03-01T09:16:54.840Z,-5.29
2018-03-01T09:17:54.983Z,-5.33
2018-03-01T09:18:55.132Z,-5.22
2018-03-01T09:19:55.281Z,-5.29
2018-03-01T09:20:55.425Z,-5.29
2018-03-01T09:21:55.572Z,-5.40
2018-03-01T09:22:55.718Z,-5.27
2018-03-01T09:23:55.860Z,-5.08
2018-03-01T09:24:56.009Z,-5.10
2018-03-01T09:25:56.168Z,-5.35
2018-03-01T09:26:56.301Z,-5.27
2018-03-01T09:27:56.446Z,-5.29
2018-03-01T09:28:56.593Z,-5.33
2018-03-01T09:29:56.743Z,-5.25
2018-03-01T09:30:56.894Z,-5.35
2018-03-01T09:31:57.035Z,-5.31
2018-03-01T09:32:57.180Z,-5.28
2018-03-01T09:33:57.323Z,-5.21
2018-03-01T09:34:57.478Z,-5.13
2018-03-01T09:35:57.607Z,-5.35
2018-03-01T09:36:57.757Z,-5.10
2018-03-01T09:37:57.909Z,-5.00
2018-03-01T09:38:58.047Z,-4.89
2018-03-01T09:39:58.192Z,-4.85
2018-03-01T09:40:58.333Z,-4.99
2018-03-01T09:41:58.480Z,-5.03
2018-03-01T09:42:58.629Z,-5.02
2018-03-01T09:43:58.777Z,-4.89
2018-03-01T09:44:58.917Z,-4.66
2018-03-01T09:45:59.065Z,-4.64
2018-03-01T09:46:59.207Z,-4.87
2018-03-01T09:47:59.354Z,-4.85
2018-03-01T09:48:59.495Z,-4.82
2018-03-01T09:49:59.641Z,-4.89
2018-03-01T09:50:59.778Z,-4.77
2018-03-01T09:51:59.918Z,-4.88
2018-03-01T09:53:00.069Z,-4.85
2018-03-01T09:54:00.212Z,-4.79
2018-03-01T09:55:00.354Z,-4.87
2018-03-01T09:56:00.509Z,-5.02
2018-03-01T09:57:00.643Z,-5.19
2018-03-01T09:58:00.817Z,-5.13
2018-03-01T09:59:00.939Z,-5.08
2018-03-01T10:00:01.085Z,-5.29
2018-03-01T10:01:01.232Z,-5.18
2018-03-01T10:02:01.377Z,-5.08
2018-03-01T10:03:01.509Z,-4.87
2018-03-01T10:04:01.648Z,-4.88
2018-03-01T10:05:01.802Z,-4.87
2018-03-01T10:06:01.942Z,-4.63
2018-03-01T10:07:02.126Z,-4.70
2018-03-01T10:08:02.244Z,-4.70
2018-03-01T10:09:02.390Z,-4.75
2018-03-01T10:10:02.536Z,-4.77
2018-03-01T10:11:02.677Z,-4.75
2018-03-01T10:12:02.819Z,-4.59
2018-03-01T10:13:02.968Z,-4.50
2018-03-01T10:14:03.115Z,-4.39
2018-03-01T10:15:03.258Z,-4.41
2018-03-01T10:16:03.400Z,-4.42
2018-03-01T10:17:03.554Z,-4.34
2018-03-01T10:18:03.700Z,-4.27
2018-03-01T10:19:03.845Z,-4.32
2018-03-01T10:20:03.987Z,-4.32
2018-03-01T10:21:04.136Z,-4.52
2018-03-01T10:22:04.278Z,-4.49
2018-03-01T10:23:04.429Z,-4.52
2018-03-01T10:24:04.570Z,-4.31
2018-03-01T10:25:04.714Z,-4.35
2018-03-01T10:26:04.860Z,-4.49
2018-03-01T10:27:05.008Z,-4.45
2018-03-01T10:28:05.161Z,-4.30
2018-03-01T10:29:05.296Z,-4.31
2018-03-01T10:30:05.445Z,-4.46
2018-03-01T10:31:05.585Z,-4.43
2018-03-01T10:32:05.730Z,-4.43
2018-03-01T10:33:05.877Z,-4.50
2018-03-01T10:34:06.022Z,-4.42
2018-03-01T10:35:06.161Z,-4.34
2018-03-01T10:36:06.308Z,-4.32
2018-03-01T10:37:06.507Z,-4.16
2018-03-01T10:38:06.607Z,-4.16
2018-03-01T10:39:06.760Z,-4.31
2018-03-01T10:40:06.893Z,-4.34
2018-03-01T10:41:07.037Z,-4.31
2018-03-01T10:42:07.177Z,-4.28
2018-03-01T10:43:07.326Z,-4.25
2018-03-01T10:44:07.474Z,-4.21
2018-03-01T10:45:07.618Z,-4.20
2018-03-01T10:46:07.762Z,-4.25
2018-03-01T10:47:07.897Z,-4.31
2018-03-01T10:48:08.030Z,-4.27
2018-03-01T10:49:08.192Z,-4.16
2018-03-01T10:50:08.333Z,-4.30
2018-03-01T10:51:08.472Z,-4.28
2018-03-01T10:52:08.618Z,-4.17
2018-03-01T10:53:08.765Z,-4.20
2018-03-01T10:54:08.924Z,-4.20
2018-03-01T10:55:09.069Z,-4.14
2018-03-01T10:56:09.211Z,-3.95
2018-03-01T10:57:09.356Z,-3.78
2018-03-01T10:58:09.498Z,-3.69
2018-03-01T10:59:09.657Z,-3.52
2018-03-01T11:00:09.789Z,-3.61
2018-03-01T11:01:09.935Z,-3.54
2018-03-01T11:02:10.082Z,-3.54
2018-03-01T11:03:10.232Z,-3.52
2018-03-01T11:04:10.377Z,-3.66
2018-03-01T11:05:10.523Z,-3.77
2018-03-01T11:06:10.667Z,-3.63
2018-03-01T11:07:10.824Z,-3.78
2018-03-01T11:08:10.958Z,-3.70
2018-03-01T11:09:11.120Z,-3.69
2018-03-01T11:10:11.228Z,-3.55
2018-03-01T11:11:11.374Z,-3.52
2018-03-01T11:12:11.524Z,-3.52
2018-03-01T11:13:11.671Z,-3.64
2018-03-01T11:14:11.809Z,-3.54
2018-03-01T11:15:11.958Z,-3.45
2018-03-01T11:16:12.102Z,-3.51
2018-03-01T11:17:12.253Z,-3.41
2018-03-01T11:18:12.394Z,-3.37
2018-03-01T11:19:12.541Z,-3.23
2018-03-01T11:20:12.683Z,-3.13
2018-03-01T11:21:12.831Z,-3.16
2018-03-01T11:22:12.979Z,-3.04
2018-03-01T11:23:13.187Z,-3.15
2018-03-01T11:24:13.518Z,-3.02
2018-03-01T11:25:13.416Z,-3.15
2018-03-01T11:26:13.564Z,-3.07
2018-03-01T11:27:13.715Z,-3.07
2018-03-01T11:28:13.856Z,-3.15
2018-03-01T11:29:14.016Z,-3.17
2018-03-01T11:30:14.158Z,-3.15
2018-03-01T11:31:14.305Z,-3.10
2018-03-01T11:32:14.447Z,-3.28
2018-03-01T11:33:14.597Z,-3.22
2018-03-01T11:34:14.737Z,-3.06
2018-03-01T11:35:14.884Z,-3.17
2018-03-01T11:36:15.027Z,-3.07
2018-03-01T11:37:15.171Z,-3.13
2018-03-01T11:38:15.318Z,-3.13
2018-03-01T11:39:15.555Z,-3.13
2018-03-01T11:40:15.609Z,-3.17
2018-03-01T11:41:15.763Z,-3.41
2018-03-01T11:42:15.911Z,-3.23
2018-03-01T11:43:16.048Z,-3.23
2018-03-01T11:44:16.195Z,-3.30
2018-03-01T11:45:16.342Z,-3.13
2018-03-01T11:46:16.491Z,-3.17
2018-03-01T11:47:16.639Z,-3.16
2018-03-01T11:48:16.770Z,-3.07
2018-03-01T11:49:16.909Z,-3.12
2018-03-01T11:50:17.055Z,-3.20
2018-03-01T11:51:17.192Z,-3.19
2018-03-01T11:52:17.336Z,-3.15
2018-03-01T11:53:17.482Z,-3.12
2018-03-01T11:54:17.634Z,-2.97
2018-03-01T11:55:17.781Z,-2.98
2018-03-01T11:56:17.920Z,-2.88
2018-03-01T11:57:18.095Z,-2.71
2018-03-01T11:58:18.206Z,-2.62
2018-03-01T11:59:18.353Z,-2.53
2018-03-01T12:00:18.511Z,-2.50
2018-03-01T12:01:18.653Z,-2.66
2018-03-01T12:02:18.805Z,-2.66
2018-03-01T12:03:18.939Z,-2.71
2018-03-01T12:04:19.088Z,-2.71
2018-03-01T12:05:19.240Z,-2.71
2018-03-01T12:06:19.381Z,-2.78
2018-03-01T12:07:19.526Z,-2.71
2018-03-01T12:08:19.685Z,-2.66
2018-03-01T12:09:19.827Z,-2.52
2018-03-01T12:10:19.975Z,-2.47
2018-03-01T12:11:20.121Z,-2.41
2018-03-01T12:12:20.269Z,-2.38
2018-03-01T12:13:20.420Z,-2.53
2018-03-01T12:14:20.558Z,-2.65
2018-03-01T12:15:20.704Z,-2.69
2018-03-01T12:16:20.853Z,-2.80
2018-03-01T12:17:21.001Z,-2.70
2018-03-01T12:18:21.161Z,-2.77
2018-03-01T12:19:21.302Z,-2.81
2018-03-01T12:20:21.451Z,-2.84
2018-03-01T12:21:21.590Z,-2.74
2018-03-01T12:22:21.737Z,-2.38
2018-03-01T12:23:21.881Z,-2.21
2018-03-01T12:24:22.023Z,-2.38
2018-03-01T12:25:22.168Z,-2.48
2018-03-01T12:26:22.313Z,-2.44
2018-03-01T12:27:22.460Z,-2.44
2018-03-01T12:28:22.608Z,-2.50
2018-03-01T12:29:22.757Z,-2.40
2018-03-01T12:30:22.911Z,-2.37
2018-03-01T12:31:23.047Z,-2.41
2018-03-01T12:32:23.194Z,-2.47
2018-03-01T12:33:23.343Z,-2.50
2018-03-01T12:34:23.488Z,-2.47
2018-03-01T12:35:23.635Z,-2.50
2018-03-01T12:36:23.785Z,-2.56
2018-03-01T12:37:23.930Z,-2.50
2018-03-01T12:38:24.079Z,-2.55
2018-03-01T12:39:24.223Z,-2.55
2018-03-01T12:40:24.373Z,-2.74
2018-03-01T12:41:24.518Z,-2.69
2018-03-01T12:42:24.685Z,-2.55
2018-03-01T12:43:24.797Z,-2.60
2018-03-01T12:44:24.940Z,-2.60
2018-03-01T12:45:25.089Z,-2.50
2018-03-01T12:46:25.236Z,-2.66
2018-03-01T12:47:25.379Z,-2.70
2018-03-01T12:48:25.537Z,-2.58
2018-03-01T12:49:25.678Z,-2.60
2018-03-01T12:50:25.828Z,-2.60
2018-03-01T12:51:25.971Z,-2.48
2018-03-01T12:52:26.131Z,-2.47
2018-03-01T12:53:26.267Z,-2.34
2018-03-01T12:54:26.399Z,-2.30
2018-03-01T12:55:26.565Z,-2.21
2018-03-01T12:56:26.717Z,-2.07
2018-03-01T12:57:26.856Z,-1.94
2018-03-01T12:58:27.004Z,-1.86